createdAt,value
2023-02-06T00:00:50.943Z,-2.06
2023-02-06T00:03:18.216Z,-2.09
2023-02-06T00:05:54.384Z,-2.08
2023-02-06T00:08:22.015Z,-2.24
2023-02-06T00:10:49.204Z,-2.20
2023-02-06T00:13:16.148Z,-2.11
2023-02-06T00:15:43.290Z,-2.05
2023-02-06T00:18:10.512Z,-2.10
2023-02-06T00:20:38.521Z,-2.09
2023-02-06T00:23:05.560Z,-2.13
2023-02-06T00:25:32.628Z,-2.09
2023-02-06T00:27:59.683Z,-2.08
2023-02-06T00:30:26.786Z,-2.14
2023-02-06T00:32:53.679Z,-2.21
2023-02-06T00:35:20.818Z,-2.16
2023-02-06T00:37:47.976Z,-2.16
2023-02-06T00:40:14.887Z,-2.19
2023-02-06T00:42:41.886Z,-2.17
2023-02-06T00:45:09.890Z,-2.15
2023-02-06T00:47:36.934Z,-2.08
2023-02-06T00:50:04.616Z,-2.05
2023-02-06T00:52:31.657Z,-2.04
2023-02-06T00:54:58.664Z,-2.10
2023-02-06T00:57:25.714Z,-2.22
2023-02-06T00:59:54.443Z,-2.25
2023-02-06T01:02:21.585Z,-2.33
2023-02-06T01:04:48.619Z,-2.33
2023-02-06T01:07:15.524Z,-2.31
2023-02-06T01:09:42.566Z,-2.28
2023-02-06T01:12:09.522Z,-2.26
2023-02-06T01:14:36.507Z,-2.22
2023-02-06T01:17:03.505Z,-2.28
2023-02-06T01:19:30.597Z,-2.31
2023-02-06T01:21:57.662Z,-2.32
2023-02-06T01:24:24.772Z,-2.39
2023-02-06T01:26:51.880Z,-2.34
2023-02-06T01:29:18.839Z,-2.34
2023-02-06T01:31:45.996Z,-2.38
2023-02-06T01:34:13.194Z,-2.43
2023-02-06T01:36:40.225Z,-2.43
2023-02-06T01:39:07.993Z,-2.45
2023-02-06T01:41:35.060Z,-2.56
2023-02-06T01:44:15.690Z,-2.54
2023-02-06T01:46:45.736Z,-2.53
2023-02-06T01:49:39.712Z,-2.61
2023-02-06T01:52:24.205Z,-2.57
2023-02-06T01:54:59.818Z,-2.50
2023-02-06T01:57:28.269Z,-2.53
2023-02-06T01:59:59.605Z,-2.47
2023-02-06T02:02:29.017Z,-2.51
2023-02-06T02:04:56.991Z,-2.50
2023-02-06T02:07:27.426Z,-2.48
2023-02-06T02:09:54.922Z,-2.51
2023-02-06T02:12:21.996Z,-2.56
2023-02-06T02:14:52.619Z,-2.60
2023-02-06T02:17:36.575Z,-2.52
2023-02-06T02:20:37.719Z,-2.50
2023-02-06T02:23:16.547Z,-2.49
2023-02-06T02:25:49.497Z,-2.56
2023-02-06T02:28:48.926Z,-2.68
2023-02-06T02:31:27.898Z,-2.68
2023-02-06T02:34:33.206Z,-2.84
2023-02-06T02:37:16.186Z,-2.83
2023-02-06T02:40:06.165Z,-2.84
2023-02-06T02:42:54.553Z,-2.82
2023-02-06T02:45:25.034Z,-2.77
2023-02-06T02:48:12.868Z,-2.76
2023-02-06T02:50:40.596Z,-2.78
2023-02-06T02:53:08.803Z,-2.74
2023-02-06T02:55:36.421Z,-2.77
2023-02-06T02:58:11.617Z,-2.75
2023-02-06T03:01:05.200Z,-2.73
2023-02-06T03:03:37.960Z,-2.81
2023-02-06T03:06:49.284Z,-2.85
2023-02-06T03:09:28.798Z,-2.94
2023-02-06T03:12:06.753Z,-2.98
2023-02-06T03:15:00.114Z,-2.90
2023-02-06T03:17:38.187Z,-2.91
2023-02-06T03:20:08.704Z,-3.00
2023-02-06T03:22:37.378Z,-3.18
2023-02-06T03:25:12.212Z,-3.26
2023-02-06T03:27:42.858Z,-3.23
2023-02-06T03:30:14.265Z,-3.18
2023-02-06T03:32:45.691Z,-3.19
2023-02-06T03:35:23.281Z,-3.17
2023-02-06T03:37:50.495Z,-3.27
2023-02-06T03:40:18.436Z,-3.17
2023-02-06T03:42:51.234Z,-3.11
2023-02-06T03:45:26.596Z,-3.19
2023-02-06T03:47:58.695Z,-3.08
2023-02-06T03:50:27.235Z,-3.16
2023-02-06T03:52:57.263Z,-3.12
2023-02-06T03:55:24.936Z,-3.17
2023-02-06T03:57:56.432Z,-3.16
2023-02-06T04:00:23.708Z,-3.12
2023-02-06T04:02:52.646Z,-3.13
2023-02-06T04:05:20.657Z,-3.09
2023-02-06T04:07:47.663Z,-3.04
2023-02-06T04:10:15.047Z,-3.06
2023-02-06T04:12:42.001Z,-3.04
2023-02-06T04:15:09.356Z,-3.04
2023-02-06T04:17:58.915Z,-3.03
2023-02-06T04:20:24.079Z,-3.01
2023-02-06T04:22:51.055Z,-3.06
2023-02-06T04:25:18.176Z,-2.97
2023-02-06T04:27:45.237Z,-2.96
2023-02-06T04:30:12.806Z,-2.99
2023-02-06T04:32:39.966Z,-2.97
2023-02-06T04:35:07.193Z,-3.25
2023-02-06T04:37:34.225Z,-2.95
2023-02-06T04:40:01.342Z,-2.96
2023-02-06T04:42:30.388Z,-2.94
2023-02-06T04:44:57.455Z,-2.96
2023-02-06T04:47:24.463Z,-3.04
2023-02-06T04:49:51.442Z,-2.99
2023-02-06T04:52:18.595Z,-3.03
2023-02-06T04:54:45.579Z,-3.02
2023-02-06T04:57:12.597Z,-2.93
2023-02-06T04:59:39.638Z,-2.91
2023-02-06T05:02:06.639Z,-2.96
2023-02-06T05:04:33.758Z,-2.97
2023-02-06T05:07:00.792Z,-2.93
2023-02-06T05:09:27.922Z,-2.91
2023-02-06T05:11:54.883Z,-2.91
2023-02-06T05:14:21.845Z,-2.84
2023-02-06T05:16:48.887Z,-2.84
2023-02-06T05:19:16.154Z,-2.83
2023-02-06T05:21:43.072Z,-2.81
2023-02-06T05:24:10.144Z,-2.95
2023-02-06T05:26:37.129Z,-2.88
2023-02-06T05:29:04.362Z,-2.91
2023-02-06T05:31:31.651Z,-2.87
2023-02-06T05:33:58.942Z,-2.88
2023-02-06T05:36:25.999Z,-2.95
2023-02-06T05:38:53.326Z,-2.98
2023-02-06T05:41:20.512Z,-2.92
2023-02-06T05:43:47.650Z,-2.89
2023-02-06T05:46:14.738Z,-2.95
2023-02-06T05:48:41.742Z,-2.95
2023-02-06T05:51:09.331Z,-2.91
2023-02-06T05:53:36.570Z,-2.93
2023-02-06T05:56:03.833Z,-2.89
2023-02-06T05:58:31.707Z,-2.85
2023-02-06T06:00:58.740Z,-2.86
2023-02-06T06:03:25.841Z,-2.84
2023-02-06T06:05:54.234Z,-2.85
2023-02-06T06:08:21.488Z,-2.81
2023-02-06T06:10:52.463Z,-2.78
2023-02-06T06:13:19.609Z,-2.76
2023-02-06T06:15:51.952Z,-2.77
2023-02-06T06:18:21.189Z,-2.74
2023-02-06T06:20:49.169Z,-2.68
2023-02-06T06:23:16.655Z,-2.66
2023-02-06T06:25:44.121Z,-2.63
2023-02-06T06:28:11.148Z,-2.59
2023-02-06T06:30:38.355Z,-2.58
2023-02-06T06:33:05.764Z,-2.53
2023-02-06T06:35:33.197Z,-2.57
2023-02-06T06:38:00.608Z,-2.72
2023-02-06T06:40:27.554Z,-2.75
2023-02-06T06:42:54.608Z,-2.79
2023-02-06T06:45:22.074Z,-2.86
2023-02-06T06:47:48.973Z,-2.82
2023-02-06T06:50:15.976Z,-2.77
2023-02-06T06:52:43.113Z,-2.73
2023-02-06T06:55:11.042Z,-2.74
2023-02-06T06:57:39.008Z,-2.70
2023-02-06T07:00:06.532Z,-2.81
2023-02-06T07:02:33.467Z,-2.88
2023-02-06T07:05:00.638Z,-2.86
2023-02-06T07:07:28.019Z,-3.15
2023-02-06T07:09:55.278Z,-3.02
2023-02-06T07:12:22.282Z,-2.96
2023-02-06T07:14:49.314Z,-3.03
2023-02-06T07:17:16.362Z,-2.99
2023-02-06T07:19:48.103Z,-2.96
2023-02-06T07:22:15.728Z,-2.97
2023-02-06T07:24:43.029Z,-2.96
2023-02-06T07:27:10.374Z,-2.93
2023-02-06T07:29:38.064Z,-2.97
2023-02-06T07:32:06.258Z,-2.85
2023-02-06T07:34:33.332Z,-2.80
2023-02-06T07:37:01.185Z,-2.75
2023-02-06T07:39:28.329Z,-3.02
2023-02-06T07:41:55.778Z,-3.21
2023-02-06T07:44:29.732Z,-3.28
2023-02-06T07:46:57.376Z,-3.36
2023-02-06T07:49:24.432Z,-3.21
2023-02-06T07:51:51.551Z,-3.14
2023-02-06T07:54:20.574Z,-3.14
2023-02-06T07:56:47.726Z,-3.10
2023-02-06T07:59:14.940Z,-3.38
2023-02-06T08:01:41.893Z,-3.27
2023-02-06T08:04:09.017Z,-3.36
2023-02-06T08:06:36.775Z,-3.43
2023-02-06T08:09:05.793Z,-3.21
2023-02-06T08:11:32.898Z,-3.20
2023-02-06T08:13:59.865Z,-3.49
2023-02-06T08:16:26.957Z,-3.34
2023-02-06T08:18:54.422Z,-3.17
2023-02-06T08:21:23.771Z,-3.05
2023-02-06T08:23:58.298Z,-3.00
2023-02-06T08:26:27.318Z,-2.89
2023-02-06T08:28:55.252Z,-2.95
2023-02-06T08:31:29.004Z,-2.84
2023-02-06T08:33:56.804Z,-2.77
2023-02-06T08:36:24.991Z,-2.72
2023-02-06T08:38:53.212Z,-2.68
2023-02-06T08:41:26.106Z,-2.66
2023-02-06T08:43:55.801Z,-2.61
2023-02-06T08:46:25.054Z,-2.63
2023-02-06T08:49:00.573Z,-2.67
2023-02-06T08:51:28.347Z,-2.68
2023-02-06T08:53:59.906Z,-2.69
2023-02-06T08:56:28.018Z,-2.71
2023-02-06T08:58:55.457Z,-2.71
2023-02-06T09:01:22.523Z,-2.69
2023-02-06T09:03:49.589Z,-2.67
2023-02-06T09:06:17.018Z,-2.60
2023-02-06T09:08:44.725Z,-2.62
2023-02-06T09:11:17.041Z,-2.57
2023-02-06T09:13:49.266Z,-2.70
2023-02-06T09:16:18.759Z,-2.82
2023-02-06T09:18:46.241Z,-2.77
2023-02-06T09:21:15.609Z,-2.75
2023-02-06T09:23:48.017Z,-2.73
2023-02-06T09:26:17.894Z,-2.75
2023-02-06T09:28:45.156Z,-2.67
2023-02-06T09:31:12.750Z,-2.66
2023-02-06T09:33:40.311Z,-2.61
2023-02-06T09:36:10.215Z,-2.61
2023-02-06T09:38:41.326Z,-2.58
2023-02-06T09:41:18.738Z,-2.60
2023-02-06T09:43:54.494Z,-2.64
2023-02-06T09:46:27.578Z,-2.63
2023-02-06T09:48:57.405Z,-2.69
2023-02-06T09:51:41.418Z,-2.68
2023-02-06T09:54:39.125Z,-2.74
2023-02-06T09:57:38.716Z,-2.70
2023-02-06T10:00:45.113Z,-2.66
2023-02-06T10:03:37.659Z,-2.65
2023-02-06T10:06:25.411Z,-2.62
2023-02-06T10:08:55.533Z,-2.70
2023-02-06T10:11:41.424Z,-2.69
2023-02-06T10:14:31.642Z,-2.67
2023-02-06T10:17:03.153Z,-2.62
2023-02-06T10:19:46.800Z,-2.60
2023-02-06T10:22:54.616Z,-2.64
2023-02-06T10:25:39.047Z,-2.65
2023-02-06T10:28:20.746Z,-2.70
2023-02-06T10:31:13.836Z,-2.71
2023-02-06T10:33:46.621Z,-2.68
2023-02-06T10:36:45.228Z,-2.73
2023-02-06T10:39:46.652Z,-3.04
2023-02-06T10:42:28.633Z,-3.05
2023-02-06T10:45:20.139Z,-2.93
2023-02-06T10:47:57.230Z,-2.99
2023-02-06T10:50:39.674Z,-2.82
2023-02-06T10:53:38.876Z,-2.75
2023-02-06T10:56:13.489Z,-2.71
2023-02-06T10:58:46.482Z,-2.66
2023-02-06T11:01:25.615Z,-2.57
2023-02-06T11:04:03.794Z,-2.55
2023-02-06T11:06:32.249Z,-2.51
2023-02-06T11:08:59.252Z,-2.46
2023-02-06T11:11:33.500Z,-2.42
2023-02-06T11:14:27.852Z,-2.43
2023-02-06T11:16:54.894Z,-2.46
2023-02-06T11:19:33.762Z,-2.48
2023-02-06T11:22:13.037Z,-2.41
2023-02-06T11:24:59.201Z,-2.38
2023-02-06T11:27:27.804Z,-2.37
2023-02-06T11:29:55.008Z,-2.38
2023-02-06T11:32:36.203Z,-2.36
2023-02-06T11:35:39.774Z,-2.31
2023-02-06T11:38:13.088Z,-2.29
2023-02-06T11:40:40.410Z,-2.28
2023-02-06T11:43:49.345Z,-2.44
2023-02-06T11:46:20.437Z,-2.32
2023-02-06T11:48:56.588Z,-2.28
2023-02-06T11:51:24.736Z,-2.31
2023-02-06T11:54:03.364Z,-2.29
2023-02-06T11:56:32.032Z,-2.30
2023-02-06T11:59:07.203Z,-2.32
2023-02-06T12:01:47.184Z,-2.26
2023-02-06T12:04:25.633Z,-2.22
2023-02-06T12:07:23.502Z,-2.32
2023-02-06T12:09:51.584Z,-2.75
2023-02-06T12:12:39.315Z,-2.50
2023-02-06T12:15:36.105Z,-2.46
2023-02-06T12:18:04.159Z,-2.57
2023-02-06T12:20:41.704Z,-2.62
2023-02-06T12:23:20.467Z,-2.60
2023-02-06T12:25:54.754Z,-2.62
2023-02-06T12:28:55.917Z,-2.73
2023-02-06T12:31:38.015Z,-2.64
2023-02-06T12:34:40.460Z,-2.68
2023-02-06T12:37:39.803Z,-2.71
2023-02-06T12:40:20.554Z,-2.91
2023-02-06T12:43:03.975Z,-2.80
2023-02-06T12:45:57.106Z,-2.74
2023-02-06T12:48:38.961Z,-2.83
2023-02-06T12:51:35.349Z,-2.85
2023-02-06T12:54:30.571Z,-2.86
2023-02-06T12:57:20.823Z,-2.92
2023-02-06T12:59:58.300Z,-2.96
2023-02-06T13:02:54.620Z,-3.00
2023-02-06T13:05:32.758Z,-2.95
2023-02-06T13:08:07.529Z,-2.89
2023-02-06T13:10:36.675Z,-3.47
2023-02-06T13:13:04.152Z,-3.02
2023-02-06T13:15:40.974Z,-3.01
2023-02-06T13:18:52.831Z,-2.96
2023-02-06T13:21:29.721Z,-2.93
2023-02-06T13:24:02.894Z,-2.92
2023-02-06T13:26:51.660Z,-3.13
2023-02-06T13:29:41.776Z,-3.23
2023-02-06T13:32:23.454Z,-3.21
2023-02-06T13:34:50.790Z,-3.14
2023-02-06T13:37:35.204Z,-3.19
2023-02-06T13:40:24.127Z,-3.13
2023-02-06T13:42:57.889Z,-3.07
2023-02-06T13:45:54.423Z,-3.02
2023-02-06T13:48:40.220Z,-3.14
2023-02-06T13:51:07.579Z,-3.04
2023-02-06T13:54:02.600Z,-3.01
2023-02-06T13:56:54.823Z,-3.01
2023-02-06T13:59:30.084Z,-3.14
2023-02-06T14:01:57.558Z,-3.17
2023-02-06T14:04:27.547Z,-3.13
2023-02-06T14:07:12.403Z,-3.28
2023-02-06T14:09:59.662Z,-3.23
2023-02-06T14:12:44.949Z,-3.14
2023-02-06T14:15:18.071Z,-3.18
2023-02-06T14:18:29.304Z,-3.17
2023-02-06T14:21:37.656Z,-3.27
2023-02-06T14:24:07.316Z,-3.20
2023-02-06T14:26:34.177Z,-3.30
2023-02-06T14:29:26.474Z,-3.42
2023-02-06T14:32:08.150Z,-3.66
2023-02-06T14:35:04.372Z,-3.48
2023-02-06T14:37:58.318Z,-3.38
2023-02-06T14:40:33.720Z,-3.36
2023-02-06T14:43:06.281Z,-3.51
2023-02-06T14:45:42.549Z,-3.37
2023-02-06T14:48:24.597Z,-3.31
2023-02-06T14:50:56.411Z,-3.46
2023-02-06T14:53:34.287Z,-3.54
2023-02-06T14:56:24.322Z,-3.48
2023-02-06T14:58:51.605Z,-3.43
2023-02-06T15:01:18.654Z,-3.38
2023-02-06T15:03:47.007Z,-3.34
2023-02-06T15:06:31.696Z,-3.54
2023-02-06T15:08:59.606Z,-3.48
2023-02-06T15:11:32.991Z,-3.54
2023-02-06T15:14:06.008Z,-3.58
2023-02-06T15:16:46.886Z,-3.71
2023-02-06T15:19:22.263Z,-3.53
2023-02-06T15:21:52.715Z,-3.54
2023-02-06T15:24:28.448Z,-3.65
2023-02-06T15:27:10.420Z,-3.56
2023-02-06T15:29:37.647Z,-3.51
2023-02-06T15:32:08.472Z,-3.40
2023-02-06T15:34:35.947Z,-3.39
2023-02-06T15:37:23.768Z,-3.29
2023-02-06T15:39:52.004Z,-3.21
2023-02-06T15:42:21.498Z,-3.22
2023-02-06T15:44:49.883Z,-3.17
2023-02-06T15:47:18.373Z,-3.17
2023-02-06T15:49:48.797Z,-3.31
2023-02-06T15:52:36.198Z,-3.26
2023-02-06T15:55:04.893Z,-3.18
2023-02-06T15:57:43.717Z,-3.16
2023-02-06T16:00:37.851Z,-3.33
2023-02-06T16:03:09.084Z,-3.48
2023-02-06T16:05:43.063Z,-3.49
2023-02-06T16:08:19.470Z,-3.58
2023-02-06T16:10:56.948Z,-3.68
2023-02-06T16:13:26.794Z,-3.69
2023-02-06T16:16:18.176Z,-3.67
2023-02-06T16:18:46.718Z,-3.72
2023-02-06T16:21:19.645Z,-3.73
2023-02-06T16:24:06.447Z,-3.59
2023-02-06T16:26:44.142Z,-3.80
2023-02-06T16:29:11.453Z,-3.88
2023-02-06T16:31:41.342Z,-3.83
2023-02-06T16:34:30.659Z,-3.89
2023-02-06T16:36:57.732Z,-3.66
2023-02-06T16:39:24.701Z,-3.55
2023-02-06T16:41:53.231Z,-3.56
2023-02-06T16:44:20.909Z,-3.50
2023-02-06T16:46:48.177Z,-3.55
2023-02-06T16:49:21.303Z,-3.52
2023-02-06T16:51:52.438Z,-3.47
2023-02-06T16:54:29.015Z,-3.57
2023-02-06T16:56:59.505Z,-3.55
2023-02-06T16:59:26.517Z,-3.69
2023-02-06T17:01:53.599Z,-3.71
2023-02-06T17:04:20.968Z,-3.68
2023-02-06T17:06:48.274Z,-3.86
2023-02-06T17:09:17.801Z,-3.90
2023-02-06T17:11:45.308Z,-3.92
2023-02-06T17:14:12.424Z,-3.79
2023-02-06T17:16:39.516Z,-3.93
2023-02-06T17:19:07.099Z,-3.93
2023-02-06T17:21:34.165Z,-3.77
2023-02-06T17:24:01.172Z,-3.67
2023-02-06T17:26:28.384Z,-3.75
2023-02-06T17:28:55.533Z,-3.74
2023-02-06T17:31:23.323Z,-3.73
2023-02-06T17:33:50.422Z,-3.76
2023-02-06T17:36:26.864Z,-3.87
2023-02-06T17:38:53.875Z,-3.79
2023-02-06T17:41:20.953Z,-3.78
2023-02-06T17:43:48.045Z,-3.80
2023-02-06T17:46:15.400Z,-3.87
2023-02-06T17:48:44.654Z,-3.89
2023-02-06T17:51:12.347Z,-3.76
2023-02-06T17:53:39.441Z,-3.77
2023-02-06T17:56:13.069Z,-3.71
2023-02-06T17:58:41.155Z,-3.72
2023-02-06T18:01:17.682Z,-3.96
2023-02-06T18:03:46.933Z,-3.76
2023-02-06T18:06:15.464Z,-3.80
2023-02-06T18:08:43.365Z,-3.88
2023-02-06T18:11:13.053Z,-4.11
2023-02-06T18:13:42.619Z,-4.04
2023-02-06T18:16:18.725Z,-4.02
2023-02-06T18:18:46.222Z,-3.89
2023-02-06T18:21:14.071Z,-3.78
2023-02-06T18:23:41.078Z,-3.77
2023-02-06T18:26:09.823Z,-3.72
2023-02-06T18:28:38.895Z,-3.70
2023-02-06T18:31:19.415Z,-3.71
2023-02-06T18:33:46.606Z,-3.98
2023-02-06T18:36:13.664Z,-3.82
2023-02-06T18:38:40.994Z,-3.76
2023-02-06T18:41:28.002Z,-3.87
2023-02-06T18:43:55.253Z,-3.74
2023-02-06T18:46:22.414Z,-3.74
2023-02-06T18:48:49.626Z,-3.70
2023-02-06T18:51:16.996Z,-4.00
2023-02-06T18:53:44.152Z,-3.93
2023-02-06T18:56:11.368Z,-4.03
2023-02-06T18:58:38.321Z,-3.95
2023-02-06T19:01:18.129Z,-3.89
2023-02-06T19:03:45.494Z,-3.88
2023-02-06T19:06:14.786Z,-3.89
2023-02-06T19:08:44.589Z,-3.96
2023-02-06T19:11:13.117Z,-3.97
2023-02-06T19:13:40.866Z,-4.00
2023-02-06T19:16:14.817Z,-4.03
2023-02-06T19:18:47.885Z,-4.03
2023-02-06T19:21:17.442Z,-4.23
2023-02-06T19:23:46.449Z,-4.17
2023-02-06T19:26:17.268Z,-4.01
2023-02-06T19:28:44.844Z,-3.91
2023-02-06T19:31:13.045Z,-3.97
2023-02-06T19:33:41.881Z,-3.87
2023-02-06T19:36:13.234Z,-3.95
2023-02-06T19:38:40.556Z,-4.07
2023-02-06T19:41:13.204Z,-4.00
2023-02-06T19:43:40.852Z,-3.96
2023-02-06T19:46:14.425Z,-4.15
2023-02-06T19:48:43.994Z,-4.30
2023-02-06T19:51:16.086Z,-4.21
2023-02-06T19:53:46.777Z,-4.36
2023-02-06T19:56:18.157Z,-4.29
2023-02-06T19:58:45.411Z,-4.29
2023-02-06T20:01:15.652Z,-4.23
2023-02-06T20:03:43.623Z,-4.23
2023-02-06T20:06:13.125Z,-4.14
2023-02-06T20:08:43.157Z,-4.07
2023-02-06T20:11:20.501Z,-4.40
2023-02-06T20:13:52.038Z,-4.16
2023-02-06T20:16:26.062Z,-4.30
2023-02-06T20:18:55.129Z,-4.37
2023-02-06T20:21:31.413Z,-4.26
2023-02-06T20:24:00.978Z,-4.30
2023-02-06T20:26:33.171Z,-4.41
2023-02-06T20:29:00.854Z,-4.59
2023-02-06T20:31:28.848Z,-4.46
2023-02-06T20:34:04.312Z,-4.37
2023-02-06T20:36:45.762Z,-4.20
2023-02-06T20:39:22.228Z,-4.16
2023-02-06T20:41:51.614Z,-4.06
2023-02-06T20:44:19.896Z,-4.40
2023-02-06T20:47:04.572Z,-4.27
2023-02-06T20:49:31.802Z,-4.44
2023-02-06T20:51:58.755Z,-4.40
2023-02-06T20:54:25.997Z,-4.34
2023-02-06T20:56:53.404Z,-4.45
2023-02-06T20:59:21.394Z,-4.62
2023-02-06T21:01:48.987Z,-4.58
2023-02-06T21:04:27.907Z,-4.47
2023-02-06T21:07:04.005Z,-4.48
2023-02-06T21:09:31.230Z,-4.55
2023-02-06T21:11:58.201Z,-4.56
2023-02-06T21:14:25.509Z,-4.55
2023-02-06T21:16:52.682Z,-4.54
2023-02-06T21:19:20.718Z,-4.57
2023-02-06T21:21:48.843Z,-4.45
2023-02-06T21:24:17.114Z,-4.44
2023-02-06T21:26:44.426Z,-4.60
2023-02-06T21:29:13.954Z,-4.53
2023-02-06T21:31:41.393Z,-4.59
2023-02-06T21:34:17.800Z,-4.45
2023-02-06T21:36:45.399Z,-4.58
2023-02-06T21:39:18.727Z,-4.40
2023-02-06T21:41:46.488Z,-4.26
2023-02-06T21:44:13.727Z,-4.43
2023-02-06T21:46:40.643Z,-4.32
2023-02-06T21:49:09.329Z,-4.38
2023-02-06T21:51:36.531Z,-4.51
2023-02-06T21:54:03.722Z,-4.54
2023-02-06T21:56:31.137Z,-4.53
2023-02-06T21:58:58.123Z,-4.42
2023-02-06T22:01:28.914Z,-4.39
2023-02-06T22:03:57.348Z,-4.44
2023-02-06T22:06:24.640Z,-4.53
2023-02-06T22:08:52.937Z,-4.61
2023-02-06T22:11:29.268Z,-4.53
2023-02-06T22:14:02.618Z,-4.48
2023-02-06T22:16:29.622Z,-4.49
2023-02-06T22:18:57.605Z,-4.52
2023-02-06T22:21:27.199Z,-4.57
2023-02-06T22:23:57.765Z,-4.58
2023-02-06T22:26:26.241Z,-4.73
2023-02-06T22:28:53.440Z,-4.79
2023-02-06T22:31:26.499Z,-4.79
2023-02-06T22:33:54.053Z,-4.70
2023-02-06T22:36:23.619Z,-4.76
2023-02-06T22:39:01.910Z,-4.69
2023-02-06T22:41:30.157Z,-4.83
2023-02-06T22:43:57.806Z,-4.78
2023-02-06T22:46:29.719Z,-4.79
2023-02-06T22:48:57.497Z,-4.65
2023-02-06T22:51:25.155Z,-4.75
2023-02-06T22:53:52.653Z,-4.86
2023-02-06T22:56:32.058Z,-4.74
2023-02-06T22:59:02.107Z,-4.79
2023-02-06T23:01:33.699Z,-4.78
2023-02-06T23:04:02.371Z,-4.87
2023-02-06T23:06:31.268Z,-4.70
2023-02-06T23:09:00.134Z,-4.79
2023-02-06T23:11:28.558Z,-4.61
2023-02-06T23:13:59.839Z,-4.48
2023-02-06T23:16:28.429Z,-4.53
2023-02-06T23:18:55.573Z,-4.72
2023-02-06T23:21:24.166Z,-4.78
2023-02-06T23:23:52.243Z,-4.79
2023-02-06T23:26:19.724Z,-4.77
2023-02-06T23:28:47.319Z,-4.77
2023-02-06T23:31:15.042Z,-4.72
2023-02-06T23:33:42.789Z,-4.72
2023-02-06T23:36:17.076Z,-4.69
2023-02-06T23:38:44.630Z,-4.67
2023-02-06T23:41:23.755Z,-4.67
2023-02-06T23:43:55.831Z,-4.67
2023-02-06T23:46:23.601Z,-4.51
2023-02-06T23:48:51.347Z,-4.43
2023-02-06T23:51:19.311Z,-4.39
2023-02-06T23:53:46.661Z,-4.31
2023-02-06T23:56:16.688Z,-4.27
2023-02-06T23:58:44.302Z,-4.25
